createdAt,value
2023-04-26T00:04:05.206Z,95.54
2023-04-26T00:09:14.541Z,96.54
2023-04-26T00:14:18.466Z,97.17
2023-04-26T00:19:21.406Z,99.85
2023-04-26T00:24:23.113Z,100.00
2023-04-26T00:29:24.805Z,100.00
2023-04-26T00:34:32.552Z,100.00
2023-04-26T00:39:36.800Z,100.00
2023-04-26T00:44:40.945Z,100.00
2023-04-26T00:49:45.425Z,99.94
2023-04-26T00:54:49.028Z,100.00
2023-04-26T00:59:50.734Z,100.00
2023-04-26T01:04:55.934Z,100.00
2023-04-26T01:10:00.441Z,100.00
2023-04-26T01:15:06.300Z,100.00
2023-04-26T01:20:10.484Z,100.00
2023-04-26T01:25:12.776Z,100.00
2023-04-26T01:30:16.912Z,100.00
2023-04-26T01:35:18.609Z,100.00
2023-04-26T01:40:23.102Z,100.00
2023-04-26T01:45:24.822Z,100.00
2023-04-26T01:50:58.763Z,100.00
2023-04-26T01:56:03.732Z,100.00
2023-04-26T02:01:09.097Z,100.00
2023-04-26T02:06:11.989Z,100.00
2023-04-26T02:11:13.753Z,100.00
2023-04-26T02:16:17.779Z,100.00
2023-04-26T02:21:21.544Z,100.00
2023-04-26T02:26:32.593Z,100.00
2023-04-26T02:31:35.996Z,100.00
2023-04-26T02:36:38.224Z,100.00
2023-04-26T02:41:42.293Z,100.00
2023-04-26T02:46:43.957Z,100.00
2023-04-26T02:51:46.271Z,100.00
2023-04-26T02:56:50.912Z,100.00
2023-04-26T03:01:56.122Z,100.00
2023-04-26T03:06:58.456Z,100.00
2023-04-26T03:12:06.097Z,100.00
2023-04-26T03:17:08.404Z,100.00
2023-04-26T03:22:16.118Z,100.00
2023-04-26T03:27:17.876Z,100.00
2023-04-26T03:32:19.698Z,100.00
2023-04-26T03:37:21.983Z,100.00
2023-04-26T03:42:31.355Z,100.00
2023-04-26T03:47:33.188Z,100.00
2023-04-26T03:52:34.927Z,100.00
2023-04-26T03:57:38.365Z,100.00
2023-04-26T04:02:41.689Z,100.00
2023-04-26T04:07:45.262Z,100.00
2023-04-26T04:12:49.399Z,100.00
2023-04-26T04:17:51.263Z,100.00
2023-04-26T04:22:56.213Z,100.00
2023-04-26T04:28:02.000Z,100.00
2023-04-26T04:33:09.100Z,100.00
2023-04-26T04:38:13.288Z,100.00
2023-04-26T04:43:17.795Z,100.00
2023-04-26T04:48:22.620Z,100.00
2023-04-26T04:53:27.084Z,100.00
2023-04-26T04:58:31.277Z,100.00
2023-04-26T05:03:34.177Z,100.00
2023-04-26T05:08:37.760Z,100.00
2023-04-26T05:13:40.962Z,100.00
2023-04-26T05:18:45.156Z,100.00
2023-04-26T05:23:49.389Z,100.00
2023-04-26T05:28:53.310Z,100.00
2023-04-26T05:34:17.499Z,100.00
2023-04-26T05:39:27.252Z,100.00
2023-04-26T05:44:29.452Z,100.00
2023-04-26T05:49:31.628Z,100.00
2023-04-26T05:54:36.151Z,100.00
2023-04-26T05:59:41.260Z,100.00
2023-04-26T06:04:43.676Z,100.00
2023-04-26T06:09:48.774Z,100.00
2023-04-26T06:14:50.962Z,100.00
2023-04-26T06:20:01.428Z,100.00
2023-04-26T06:25:06.762Z,100.00
2023-04-26T06:30:13.107Z,100.00
2023-04-26T06:35:23.325Z,100.00
2023-04-26T06:40:25.398Z,100.00
2023-04-26T06:45:27.893Z,100.00
2023-04-26T06:50:34.293Z,99.44
2023-04-26T06:55:36.122Z,96.61
2023-04-26T07:00:40.064Z,95.26
2023-04-26T07:05:44.097Z,99.37
2023-04-26T07:10:55.438Z,100.00
2023-04-26T07:15:57.334Z,100.00
2023-04-26T07:21:06.140Z,100.00
2023-04-26T07:26:10.474Z,100.00
2023-04-26T07:31:14.522Z,100.00
2023-04-26T07:36:16.269Z,100.00
2023-04-26T07:41:17.976Z,100.00
2023-04-26T07:46:24.754Z,99.37
2023-04-26T07:51:27.501Z,100.00
2023-04-26T07:56:29.239Z,100.00
2023-04-26T08:01:35.935Z,100.00
2023-04-26T08:06:39.223Z,100.00
2023-04-26T08:11:45.465Z,100.00
2023-04-26T08:16:50.078Z,100.00
2023-04-26T08:21:51.859Z,100.00
2023-04-26T08:26:58.575Z,100.00
2023-04-26T08:32:02.488Z,100.00
2023-04-26T08:37:05.406Z,100.00
2023-04-26T08:42:14.953Z,100.00
2023-04-26T08:47:21.767Z,97.94
2023-04-26T08:52:23.715Z,100.00
2023-04-26T08:57:27.936Z,100.00
2023-04-26T09:02:32.350Z,100.00
2023-04-26T09:07:40.939Z,100.00
2023-04-26T09:12:42.670Z,100.00
2023-04-26T09:17:45.979Z,100.00
2023-04-26T09:22:52.020Z,100.00
2023-04-26T09:27:54.002Z,94.44
2023-04-26T09:32:57.207Z,87.59
2023-04-26T09:38:07.817Z,87.17
2023-04-26T09:43:24.944Z,76.02
2023-04-26T09:48:30.689Z,73.02
2023-04-26T09:53:46.557Z,70.77
2023-04-26T09:58:58.112Z,72.93
2023-04-26T10:04:04.615Z,74.67
2023-04-26T10:09:09.192Z,76.62
2023-04-26T10:14:14.078Z,72.42
2023-04-26T10:19:18.382Z,65.71
2023-04-26T10:24:20.176Z,64.19
2023-04-26T10:29:24.850Z,65.81
2023-04-26T10:34:33.297Z,65.47
2023-04-26T10:39:35.015Z,65.28
2023-04-26T10:44:45.887Z,69.69
2023-04-26T10:49:50.468Z,68.70
2023-04-26T10:54:57.992Z,68.61
2023-04-26T11:00:14.694Z,67.77
2023-04-26T11:05:47.446Z,68.87
2023-04-26T11:11:04.787Z,62.48
2023-04-26T11:16:11.231Z,60.18
2023-04-26T11:21:18.311Z,59.39
2023-04-26T11:26:20.054Z,59.05
2023-04-26T11:31:22.185Z,55.13
2023-04-26T11:36:28.649Z,57.16
2023-04-26T11:41:30.529Z,58.36
2023-04-26T11:46:34.585Z,56.05
2023-04-26T11:51:39.020Z,55.27
2023-04-26T11:56:42.950Z,51.52
2023-04-26T12:01:51.518Z,50.32
2023-04-26T12:06:53.307Z,47.61
2023-04-26T12:12:02.254Z,46.52
2023-04-26T12:17:10.533Z,47.11
2023-04-26T12:22:14.704Z,50.13
2023-04-26T12:27:22.921Z,47.57
2023-04-26T12:32:27.534Z,42.62
2023-04-26T12:37:29.355Z,40.68
2023-04-26T12:42:33.437Z,41.05
2023-04-26T12:47:35.527Z,45.63
2023-04-26T12:52:37.278Z,47.05
2023-04-26T12:57:43.149Z,46.40
2023-04-26T13:02:47.491Z,48.06
2023-04-26T13:07:51.741Z,46.44
2023-04-26T13:12:53.966Z,44.97
2023-04-26T13:17:55.919Z,43.17
2023-04-26T13:22:59.911Z,43.08
2023-04-26T13:28:04.471Z,42.24
2023-04-26T13:33:06.239Z,41.08
2023-04-26T13:38:08.095Z,38.14
2023-04-26T13:43:10.763Z,35.03
2023-04-26T13:48:19.437Z,33.84
2023-04-26T13:53:23.822Z,28.83
2023-04-26T13:58:27.989Z,31.80
2023-04-26T14:03:30.057Z,32.98
2023-04-26T14:08:32.019Z,32.56
2023-04-26T14:13:35.835Z,31.13
2023-04-26T14:18:37.714Z,31.43
2023-04-26T14:23:44.468Z,29.54
2023-04-26T14:28:46.252Z,32.42
2023-04-26T14:33:50.238Z,34.45
2023-04-26T14:38:51.972Z,33.95
2023-04-26T14:43:56.151Z,35.14
2023-04-26T14:48:58.216Z,36.00
2023-04-26T14:54:02.402Z,35.31
2023-04-26T14:59:04.397Z,36.53
2023-04-26T15:04:08.662Z,38.74
2023-04-26T15:09:13.163Z,39.28
2023-04-26T15:14:17.137Z,38.49
2023-04-26T15:19:19.426Z,32.19
2023-04-26T15:24:23.569Z,28.79
2023-04-26T15:29:25.348Z,28.43
2023-04-26T15:34:30.201Z,27.22
2023-04-26T15:39:38.348Z,26.52
2023-04-26T15:44:42.454Z,31.04
2023-04-26T15:49:46.388Z,37.18
2023-04-26T15:54:48.273Z,38.20
2023-04-26T15:59:50.005Z,38.97
2023-04-26T16:04:57.312Z,33.76
2023-04-26T16:10:01.151Z,30.16
2023-04-26T16:15:06.814Z,26.28
2023-04-26T16:20:11.611Z,30.72
2023-04-26T16:25:13.488Z,34.83
2023-04-26T16:30:15.406Z,35.42
2023-04-26T16:35:22.568Z,34.61
2023-04-26T16:40:27.412Z,35.43
2023-04-26T16:45:31.404Z,37.08
2023-04-26T16:50:35.652Z,39.50
2023-04-26T16:55:41.798Z,39.41
2023-04-26T17:00:46.106Z,41.04
2023-04-26T17:05:50.640Z,41.68
2023-04-26T17:10:52.825Z,42.15
2023-04-26T17:15:57.176Z,44.00
2023-04-26T17:21:01.736Z,44.35
2023-04-26T17:26:05.892Z,46.36
2023-04-26T17:31:15.439Z,47.08
2023-04-26T17:36:17.821Z,48.23
2023-04-26T17:41:22.507Z,48.77
2023-04-26T17:46:26.627Z,49.91
2023-04-26T17:51:28.483Z,50.60
2023-04-26T17:56:30.476Z,51.51
2023-04-26T18:01:34.751Z,53.70
2023-04-26T18:06:40.181Z,54.25
2023-04-26T18:11:47.590Z,55.00
2023-04-26T18:16:51.588Z,55.01
2023-04-26T18:21:55.603Z,56.88
2023-04-26T18:26:57.396Z,58.65
2023-04-26T18:32:01.392Z,58.46
2023-04-26T18:37:03.301Z,60.70
2023-04-26T18:42:05.510Z,60.80
2023-04-26T18:47:09.857Z,61.92
2023-04-26T18:52:11.611Z,61.61
2023-04-26T18:57:14.764Z,62.25
2023-04-26T19:02:16.700Z,63.85
2023-04-26T19:07:21.112Z,65.77
2023-04-26T19:12:25.402Z,67.39
2023-04-26T19:17:31.822Z,74.56
2023-04-26T19:22:37.334Z,78.07
2023-04-26T19:27:44.817Z,86.15
2023-04-26T19:32:46.781Z,86.81
2023-04-26T19:38:00.710Z,85.47
2023-04-26T19:43:04.099Z,84.70
2023-04-26T19:48:12.951Z,84.75
2023-04-26T19:53:17.183Z,86.18
2023-04-26T19:58:24.277Z,85.83
2023-04-26T20:03:28.484Z,86.79
2023-04-26T20:08:31.509Z,86.48
2023-04-26T20:13:38.135Z,87.53
2023-04-26T20:18:39.950Z,88.15
2023-04-26T20:23:41.700Z,89.18
2023-04-26T20:28:43.655Z,89.70
2023-04-26T20:33:45.564Z,91.07
2023-04-26T20:38:49.770Z,92.51
2023-04-26T20:43:56.526Z,93.63
2023-04-26T20:49:01.542Z,94.27
2023-04-26T20:54:06.463Z,95.39
2023-04-26T20:59:18.806Z,95.61
2023-04-26T21:04:25.428Z,96.59
2023-04-26T21:09:31.676Z,96.90
2023-04-26T21:14:33.368Z,97.29
2023-04-26T21:19:38.571Z,97.93
2023-04-26T21:24:45.555Z,97.82
2023-04-26T21:29:47.208Z,98.45
2023-04-26T21:34:49.001Z,99.06
2023-04-26T21:39:50.829Z,99.98
2023-04-26T21:45:00.695Z,99.98
2023-04-26T21:50:07.701Z,100.00
2023-04-26T21:55:09.895Z,100.00
2023-04-26T22:00:13.208Z,100.00
2023-04-26T22:05:19.988Z,100.00
2023-04-26T22:10:21.712Z,100.00
2023-04-26T22:15:23.409Z,100.00
2023-04-26T22:20:25.126Z,100.00
2023-04-26T22:25:26.980Z,100.00
2023-04-26T22:30:31.061Z,100.00
2023-04-26T22:35:32.916Z,100.00
2023-04-26T22:40:37.389Z,100.00
2023-04-26T22:45:41.489Z,100.00
2023-04-26T22:50:45.768Z,100.00
2023-04-26T22:55:51.824Z,100.00
2023-04-26T23:00:55.837Z,100.00
2023-04-26T23:05:59.868Z,100.00
2023-04-26T23:11:11.305Z,100.00
2023-04-26T23:16:18.693Z,100.00
2023-04-26T23:21:20.624Z,100.00
2023-04-26T23:26:31.570Z,100.00
2023-04-26T23:31:33.351Z,100.00
2023-04-26T23:36:35.125Z,100.00
2023-04-26T23:41:41.860Z,100.00
2023-04-26T23:46:43.603Z,100.00
2023-04-26T23:51:50.080Z,100.00
2023-04-26T23:56:52.095Z,100.00
